Time;durP1;ratioP1;P1;durP2;ratioP2;P2;SDS_P1;SDS_P2;PMS_P1;PMS_P2;Temp;Humidity;BMP_temperature;BMP_pressure;BME280_temperature;BME280_humidity;BME280_pressure;Samples;Min_cycle;Max_cycle;Signal;HPM_P1;HPM_P2
2022/08/20 00:02:19;;;;;;;8.70;2.60;;;23.20;58.10;;;;;;4975789;28;20018;-58
2022/08/20 00:04:45;;;;;;;8.43;2.80;;;23.20;58.10;;;;;;4978392;28;20030;-58
2022/08/20 00:07:12;;;;;;;8.65;2.53;;;23.20;58.10;;;;;;4975716;28;20026;-58
2022/08/20 00:09:40;;;;;;;9.18;2.50;;;23.20;58.20;;;;;;4970626;28;20041;-58
2022/08/20 00:12:06;;;;;;;7.38;2.50;;;23.20;58.20;;;;;;4975585;28;20026;-58
2022/08/20 00:14:32;;;;;;;10.30;2.80;;;23.20;58.20;;;;;;4975774;28;20015;-59
2022/08/20 00:16:58;;;;;;;8.60;2.50;;;23.20;58.20;;;;;;4978389;28;20516;-58
2022/08/20 00:19:23;;;;;;;10.10;2.78;;;23.20;58.30;;;;;;4976288;28;20408;-58
2022/08/20 00:21:49;;;;;;;9.38;2.42;;;23.10;58.20;;;;;;4974115;28;20069;-58
2022/08/20 00:24:15;;;;;;;8.20;2.45;;;23.10;58.30;;;;;;4977598;28;20043;-58
2022/08/20 00:26:40;;;;;;;8.10;2.17;;;23.10;59.30;;;;;;4975164;28;20019;-58
2022/08/20 00:29:06;;;;;;;8.95;2.30;;;23.10;58.20;;;;;;4972458;28;20026;-58
2022/08/20 00:31:32;;;;;;;9.20;2.40;;;23.10;58.30;;;;;;4976223;28;20054;-58
2022/08/20 00:33:57;;;;;;;6.88;2.50;;;23.10;58.30;;;;;;4975914;28;20034;-58
2022/08/20 00:36:23;;;;;;;9.00;2.35;;;23.10;58.30;;;;;;4971606;28;20033;-58
2022/08/20 00:38:49;;;;;;;8.48;2.25;;;23.10;58.30;;;;;;4979348;28;20112;-58
2022/08/20 00:41:22;;;;;;;7.75;2.30;;;23.10;58.30;;;;;;4980126;28;20631;-58
2022/08/20 00:43:50;;;;;;;8.05;2.40;;;23.10;58.30;;;;;;4976839;28;20491;-58
2022/08/20 00:46:22;;;;;;;6.32;2.15;;;23.10;58.30;;;;;;4973847;28;20479;-58
2022/08/20 00:48:49;;;;;;;8.02;2.55;;;23.00;58.30;;;;;;4977087;28;20598;-58
2022/08/20 00:51:29;;;;;;;8.35;2.45;;;23.10;58.40;;;;;;4974956;28;20026;-58
2022/08/20 00:54:01;;;;;;;8.13;2.60;;;23.00;58.30;;;;;;4974575;28;20029;-58
2022/08/20 00:56:27;;;;;;;9.98;2.85;;;23.00;58.40;;;;;;4971913;28;20492;-58
2022/08/20 00:58:53;;;;;;;8.93;2.30;;;23.00;58.40;;;;;;4973225;28;20029;-58
2022/08/20 01:01:19;;;;;;;9.90;2.40;;;23.00;58.40;;;;;;4973151;28;20026;-58
2022/08/20 01:03:44;;;;;;;8.63;2.50;;;23.00;58.40;;;;;;4973871;28;20022;-59
2022/08/20 01:06:10;;;;;;;7.80;2.33;;;23.00;58.50;;;;;;4976191;28;20395;-58
2022/08/20 01:08:36;;;;;;;9.45;2.60;;;23.00;58.50;;;;;;4975437;28;20154;-57
2022/08/20 01:11:15;;;;;;;7.80;2.20;;;23.00;58.50;;;;;;4973917;28;20189;-58
2022/08/20 01:13:41;;;;;;;7.22;2.33;;;23.00;58.50;;;;;;4979227;28;20027;-59
2022/08/20 01:16:28;;;;;;;6.65;2.10;;;23.00;58.50;;;;;;4958019;28;20030;-58
2022/08/20 01:18:56;;;;;;;7.90;2.15;;;23.00;58.50;;;;;;4972336;28;20027;-58
2022/08/20 01:21:27;;;;;;;9.82;2.63;;;23.00;58.50;;;;;;4958649;28;20026;-58
2022/08/20 01:23:59;;;;;;;8.65;2.15;;;23.00;58.50;;;;;;4969938;28;20145;-57
2022/08/20 01:26:35;;;;;;;7.82;2.40;;;23.00;58.50;;;;;;4974882;28;20446;-59
2022/08/20 01:29:06;;;;;;;7.18;2.22;;;22.90;58.50;;;;;;4972179;28;20035;-58
2022/08/20 01:31:34;;;;;;;8.35;2.63;;;22.90;58.50;;;;;;4970353;28;20584;-58
2022/08/20 01:34:00;;;;;;;8.75;2.40;;;22.90;58.60;;;;;;4974341;28;20031;-58
2022/08/20 01:36:33;;;;;;;7.03;2.10;;;22.90;58.60;;;;;;4972272;28;20026;-58
2022/08/20 01:38:59;;;;;;;8.30;2.47;;;22.90;58.60;;;;;;4974420;28;20030;-58
2022/08/20 01:41:48;;;;;;;7.72;2.22;;;22.90;58.60;;;;;;4980913;28;20409;-58
2022/08/20 01:44:14;;;;;;;7.30;2.20;;;22.90;58.50;;;;;;4976168;28;20066;-58
2022/08/20 01:46:41;;;;;;;7.10;2.20;;;22.90;58.60;;;;;;4974269;28;20073;-58
2022/08/20 01:49:17;;;;;;;8.15;2.17;;;22.90;58.60;;;;;;4973498;28;20034;-57
2022/08/20 01:51:43;;;;;;;8.43;2.42;;;22.90;58.60;;;;;;4955441;28;20022;-58
2022/08/20 01:54:09;;;;;;;6.05;2.00;;;22.90;58.60;;;;;;4960625;28;20049;-57
2022/08/20 01:56:35;;;;;;;7.30;2.33;;;22.90;58.60;;;;;;4977443;28;20039;-58
2022/08/20 01:59:05;;;;;;;7.35;2.28;;;22.80;58.70;;;;;;4955723;28;20054;-58
2022/08/20 02:01:36;;;;;;;8.00;2.40;;;22.80;58.50;;;;;;4951399;28;20097;-58
2022/08/20 02:04:02;;;;;;;6.82;1.98;;;22.80;58.60;;;;;;4975533;28;20601;-58
2022/08/20 02:06:30;;;;;;;7.10;2.15;;;22.80;58.60;;;;;;4973116;28;20089;-57
2022/08/20 02:08:58;;;;;;;7.88;2.00;;;22.80;58.70;;;;;;4959992;28;20031;-58
2022/08/20 02:11:23;;;;;;;6.40;1.90;;;22.80;58.60;;;;;;4958492;28;21445;-58
2022/08/20 02:13:51;;;;;;;6.28;1.75;;;22.80;58.60;;;;;;4975211;28;20486;-58
2022/08/20 02:16:21;;;;;;;7.30;1.90;;;22.80;58.60;;;;;;4974278;28;20023;-57
2022/08/20 02:18:50;;;;;;;5.55;1.85;;;22.80;58.70;;;;;;4974513;28;20626;-58
2022/08/20 02:21:15;;;;;;;6.25;1.83;;;22.80;58.60;;;;;;4980558;28;20059;-58
2022/08/20 02:23:41;;;;;;;6.38;2.00;;;22.80;58.60;;;;;;4972785;28;20487;-58
2022/08/20 02:26:07;;;;;;;7.05;1.85;;;22.80;58.70;;;;;;4972190;28;20368;-58
2022/08/20 02:28:33;;;;;;;4.78;1.70;;;22.80;58.70;;;;;;4975191;28;20487;-58
2022/08/20 02:31:00;;;;;;;7.68;2.28;;;22.70;58.60;;;;;;4975859;28;20185;-58
2022/08/20 02:33:26;;;;;;;6.15;1.85;;;22.70;58.60;;;;;;4975090;28;20026;-58
2022/08/20 02:35:52;;;;;;;6.03;1.90;;;22.70;58.60;;;;;;4975094;28;20407;-58
2022/08/20 02:38:18;;;;;;;6.43;1.88;;;22.70;58.60;;;;;;4978445;28;20049;-58
2022/08/20 02:40:44;;;;;;;5.93;1.77;;;22.70;58.60;;;;;;4974982;28;20047;-58
2022/08/20 02:43:11;;;;;;;8.20;2.00;;;22.70;58.60;;;;;;4975382;28;20534;-57
2022/08/20 02:45:42;;;;;;;6.22;1.75;;;22.70;58.60;;;;;;4974056;28;20039;-58
2022/08/20 02:48:09;;;;;;;5.95;1.90;;;22.70;58.70;;;;;;4970194;28;20085;-57
2022/08/20 02:50:34;;;;;;;6.60;1.80;;;22.70;58.60;;;;;;4975908;28;20058;-57
2022/08/20 02:53:00;;;;;;;6.20;1.75;;;22.70;58.60;;;;;;4974887;28;20062;-58
2022/08/20 02:55:26;;;;;;;6.32;1.90;;;22.70;58.70;;;;;;4973795;28;20282;-58
2022/08/20 02:57:53;;;;;;;6.75;2.05;;;22.70;58.70;;;;;;4967807;28;20142;-57
2022/08/20 03:00:19;;;;;;;6.18;2.00;;;22.70;58.70;;;;;;4977234;28;20049;-58
2022/08/20 03:02:45;;;;;;;6.82;1.70;;;22.60;58.70;;;;;;4976883;28;20043;-58
2022/08/20 03:05:11;;;;;;;5.93;1.75;;;22.60;58.70;;;;;;4972752;28;20286;-58
2022/08/20 03:07:55;;;;;;;5.63;1.80;;;22.60;58.70;;;;;;4973781;28;20034;-58
2022/08/20 03:10:27;;;;;;;6.40;1.90;;;22.60;58.60;;;;;;4971713;28;20106;-57
2022/08/20 03:12:53;;;;;;;5.50;1.80;;;22.60;58.70;;;;;;4972410;28;20033;-58
2022/08/20 03:15:19;;;;;;;6.05;1.75;;;22.60;58.70;;;;;;4971293;28;20049;-58
2022/08/20 03:17:45;;;;;;;6.45;2.05;;;22.60;58.70;;;;;;4957914;28;20070;-58
2022/08/20 03:20:11;;;;;;;8.20;2.10;;;22.60;58.70;;;;;;4976353;28;20051;-58
2022/08/20 03:22:36;;;;;;;8.13;2.20;;;22.60;58.80;;;;;;4958066;28;20042;-58
2022/08/20 03:25:03;;;;;;;6.85;1.90;;;22.60;59.80;;;;;;4976797;28;20031;-58
2022/08/20 03:27:28;;;;;;;5.45;1.77;;;22.60;58.70;;;;;;4972078;28;20089;-58
2022/08/20 03:29:54;;;;;;;6.85;2.00;;;22.60;58.80;;;;;;4976529;28;20394;-58
2022/08/20 03:32:19;;;;;;;5.85;1.80;;;22.60;58.70;;;;;;4973532;28;20085;-59
2022/08/20 03:34:45;;;;;;;6.28;1.90;;;22.50;58.80;;;;;;4973365;28;20015;-58
2022/08/20 03:37:11;;;;;;;4.60;1.70;;;22.60;58.80;;;;;;4975503;28;20523;-58
2022/08/20 03:39:38;;;;;;;8.27;2.20;;;22.60;58.70;;;;;;4973730;28;20388;-58
2022/08/20 03:42:03;;;;;;;5.20;1.70;;;22.50;58.80;;;;;;4972450;28;20608;-58
2022/08/20 03:44:29;;;;;;;6.95;2.00;;;22.50;58.80;;;;;;4976024;28;20030;-57
2022/08/20 03:46:55;;;;;;;5.50;1.95;;;22.60;58.80;;;;;;4978305;28;20463;-58
2022/08/20 03:49:22;;;;;;;6.55;2.00;;;22.50;58.80;;;;;;4975372;28;20034;-58
2022/08/20 03:51:48;;;;;;;5.50;1.70;;;22.50;59.00;;;;;;4977901;28;20030;-58
2022/08/20 03:54:14;;;;;;;5.43;1.85;;;22.50;59.00;;;;;;4974696;28;20031;-58
2022/08/20 03:56:40;;;;;;;5.00;1.63;;;22.50;59.10;;;;;;4973270;28;20411;-58
2022/08/20 03:59:07;;;;;;;5.38;1.70;;;22.50;59.20;;;;;;4973686;28;20054;-57
2022/08/20 04:01:32;;;;;;;10.85;2.17;;;22.50;59.10;;;;;;4969469;28;20092;-58
2022/08/20 04:03:58;;;;;;;9.18;1.90;;;22.50;59.10;;;;;;4976440;28;20502;-58
2022/08/20 04:06:25;;;;;;;6.88;1.75;;;22.50;59.00;;;;;;4973269;28;20450;-57
2022/08/20 04:08:57;;;;;;;9.35;2.00;;;22.50;59.00;;;;;;4973450;28;20035;-57
2022/08/20 04:11:23;;;;;;;8.60;1.80;;;22.50;59.10;;;;;;4973158;28;20062;-57
2022/08/20 04:13:48;;;;;;;5.75;1.80;;;22.50;59.20;;;;;;4979410;28;20401;-57
2022/08/20 04:16:14;;;;;;;6.28;1.80;;;22.50;59.10;;;;;;4976241;28;20027;-58
2022/08/20 04:18:40;;;;;;;6.47;1.90;;;22.50;59.20;;;;;;4979229;28;20038;-58
2022/08/20 04:21:06;;;;;;;6.50;2.13;;;22.40;59.10;;;;;;4976989;28;20035;-58
2022/08/20 04:23:32;;;;;;;7.32;2.08;;;22.40;59.10;;;;;;4973666;28;20061;-58
2022/08/20 04:25:58;;;;;;;5.65;1.60;;;22.40;59.10;;;;;;4981377;28;20117;-58
2022/08/20 04:28:28;;;;;;;4.85;1.60;;;22.40;59.10;;;;;;4980225;28;20045;-58
2022/08/20 04:30:56;;;;;;;6.28;1.90;;;22.40;59.20;;;;;;4977885;28;20023;-58
2022/08/20 04:33:23;;;;;;;5.97;1.67;;;22.40;59.20;;;;;;4981552;28;20026;-58
2022/08/20 04:35:51;;;;;;;6.03;1.80;;;22.40;59.10;;;;;;4977353;28;20560;-58
2022/08/20 04:38:18;;;;;;;5.70;1.70;;;22.40;59.20;;;;;;4970666;28;20027;-58
2022/08/20 04:40:53;;;;;;;6.65;1.60;;;22.40;59.10;;;;;;4979516;28;20105;-58
2022/08/20 04:43:33;;;;;;;4.82;1.52;;;22.40;59.20;;;;;;4977186;28;20033;-58
2022/08/20 04:46:00;;;;;;;5.38;1.75;;;22.40;59.20;;;;;;4975196;28;20089;-58
2022/08/20 04:48:27;;;;;;;5.03;1.65;;;22.40;59.20;;;;;;4976926;28;20495;-58
2022/08/20 04:50:53;;;;;;;5.63;1.90;;;22.30;59.10;;;;;;4977346;28;20034;-58
2022/08/20 04:53:21;;;;;;;5.25;1.60;;;22.40;59.20;;;;;;4974254;28;20030;-58
2022/08/20 04:55:47;;;;;;;7.65;1.83;;;22.30;59.10;;;;;;4973913;28;20081;-58
2022/08/20 04:58:16;;;;;;;7.88;1.90;;;22.30;59.10;;;;;;4976630;28;20124;-58
2022/08/20 05:00:45;;;;;;;5.70;1.70;;;22.30;59.20;;;;;;4974102;28;20073;-58
2022/08/20 05:03:11;;;;;;;7.18;1.92;;;22.30;59.10;;;;;;4976016;28;20058;-58
2022/08/20 05:05:37;;;;;;;4.55;1.60;;;22.30;59.20;;;;;;4972793;28;20034;-58
2022/08/20 05:08:03;;;;;;;5.63;1.40;;;22.30;59.10;;;;;;4970274;28;20031;-58
2022/08/20 05:10:28;;;;;;;5.63;1.70;;;22.30;59.20;;;;;;4974759;28;20052;-58
2022/08/20 05:12:55;;;;;;;6.07;1.60;;;22.30;59.20;;;;;;4977319;28;20364;-58
2022/08/20 05:15:25;;;;;;;4.95;1.40;;;22.30;59.20;;;;;;4975284;28;20030;-58
2022/08/20 05:17:54;;;;;;;5.35;1.60;;;22.30;59.20;;;;;;4971184;28;20050;-58
2022/08/20 05:20:21;;;;;;;3.70;1.30;;;22.30;59.20;;;;;;4975422;28;20033;-57
2022/08/20 05:22:46;;;;;;;4.55;1.40;;;22.30;59.20;;;;;;4973970;28;20045;-57
2022/08/20 05:25:12;;;;;;;4.95;1.60;;;22.30;59.20;;;;;;4972283;28;20026;-58
2022/08/20 05:27:38;;;;;;;5.03;1.60;;;22.30;59.20;;;;;;4980478;28;20042;-57
2022/08/20 05:30:09;;;;;;;5.30;1.52;;;22.30;59.20;;;;;;4973677;28;20043;-58
2022/08/20 05:32:35;;;;;;;5.70;1.63;;;22.30;59.20;;;;;;4973735;28;20110;-58
2022/08/20 05:35:02;;;;;;;4.80;1.60;;;22.20;59.10;;;;;;4964148;28;20510;-58
2022/08/20 05:37:29;;;;;;;6.10;1.77;;;22.20;59.10;;;;;;4966333;28;20034;-58
2022/08/20 05:39:54;;;;;;;5.57;1.50;;;22.20;59.10;;;;;;4971160;28;20026;-57
2022/08/20 05:42:20;;;;;;;5.95;1.40;;;22.20;59.10;;;;;;4967978;28;20062;-58
2022/08/20 05:44:46;;;;;;;5.60;1.38;;;22.20;59.50;;;;;;4960539;28;20422;-58
2022/08/20 05:47:12;;;;;;;4.43;1.48;;;22.20;59.20;;;;;;4971633;28;20031;-58
2022/08/20 05:49:37;;;;;;;4.95;1.45;;;22.20;59.10;;;;;;4976333;28;20030;-57
2022/08/20 05:52:04;;;;;;;2.95;1.40;;;22.20;59.20;;;;;;4968652;28;20023;-57
2022/08/20 05:54:30;;;;;;;5.63;1.70;;;22.20;59.10;;;;;;4972302;28;20050;-57
2022/08/20 05:56:56;;;;;;;5.30;1.50;;;22.20;59.10;;;;;;4973176;28;20054;-57
2022/08/20 05:59:23;;;;;;;4.75;1.38;;;22.20;59.10;;;;;;4971849;28;20038;-57
2022/08/20 06:01:48;;;;;;;5.75;1.48;;;22.10;59.20;;;;;;4972978;28;20034;-57
2022/08/20 06:04:23;;;;;;;4.93;1.35;;;22.10;59.10;;;;;;4975991;28;20027;-57
2022/08/20 06:06:51;;;;;;;5.20;1.80;;;22.10;59.20;;;;;;4966019;28;20035;-57
2022/08/20 06:09:18;;;;;;;4.30;1.30;;;22.10;59.20;;;;;;4974317;28;20105;-58
2022/08/20 06:11:43;;;;;;;3.97;1.50;;;22.10;59.20;;;;;;4971115;28;20034;-56
2022/08/20 06:14:09;;;;;;;4.13;1.42;;;22.10;59.10;;;;;;4969450;28;20039;-58
2022/08/20 06:16:35;;;;;;;5.47;1.40;;;22.10;59.20;;;;;;4972477;28;20030;-57
2022/08/20 06:19:01;;;;;;;5.20;1.50;;;22.10;59.20;;;;;;4977937;28;20044;-57
2022/08/20 06:21:26;;;;;;;4.53;1.38;;;22.10;59.20;;;;;;4971535;28;20034;-57
2022/08/20 06:23:52;;;;;;;4.75;1.52;;;22.10;59.20;;;;;;4975485;28;20523;-57
2022/08/20 06:26:18;;;;;;;4.28;1.55;;;22.10;59.20;;;;;;4972830;28;20121;-57
2022/08/20 06:28:43;;;;;;;4.68;1.60;;;22.10;59.70;;;;;;4973265;28;20069;-57
2022/08/20 06:31:10;;;;;;;4.82;1.60;;;22.10;59.20;;;;;;4975430;28;20522;-57
2022/08/20 06:33:36;;;;;;;5.85;1.60;;;22.10;59.20;;;;;;4975944;28;20408;-57
2022/08/20 06:36:02;;;;;;;4.68;1.50;;;22.10;59.20;;;;;;4968078;28;20034;-57
2022/08/20 06:38:27;;;;;;;5.00;1.55;;;22.10;59.20;;;;;;4972262;28;20122;-57
2022/08/20 06:40:53;;;;;;;5.13;1.70;;;22.10;59.20;;;;;;4973713;28;20110;-58
2022/08/20 06:43:19;;;;;;;6.13;1.65;;;22.10;59.20;;;;;;4977577;28;20069;-58
2022/08/20 06:45:45;;;;;;;5.25;1.40;;;22.00;59.20;;;;;;4972561;28;20038;-57
2022/08/20 06:48:12;;;;;;;5.55;1.50;;;22.10;59.30;;;;;;4976446;28;20031;-57
2022/08/20 06:50:40;;;;;;;3.83;1.27;;;22.10;59.20;;;;;;4972933;28;20026;-59
2022/08/20 06:53:06;;;;;;;3.95;1.42;;;22.00;59.20;;;;;;4970344;28;20027;-58
2022/08/20 06:55:32;;;;;;;5.30;1.50;;;22.10;59.30;;;;;;4977153;28;20027;-59
2022/08/20 06:58:00;;;;;;;4.35;1.38;;;22.10;59.30;;;;;;4971742;28;20066;-59
2022/08/20 07:00:26;;;;;;;4.50;1.60;;;22.00;59.20;;;;;;4975239;28;20022;-59
2022/08/20 07:02:52;;;;;;;5.22;1.65;;;22.00;59.30;;;;;;4969308;28;20023;-59
2022/08/20 07:05:18;;;;;;;4.75;1.42;;;22.00;59.30;;;;;;4973082;28;20034;-59
2022/08/20 07:07:48;;;;;;;3.95;1.17;;;22.00;59.30;;;;;;4973354;28;20031;-59
2022/08/20 07:10:14;;;;;;;3.25;1.38;;;22.00;59.40;;;;;;4968541;28;20385;-59
2022/08/20 07:12:39;;;;;;;4.97;1.50;;;22.10;59.60;;;;;;4974294;28;20031;-59
2022/08/20 07:15:09;;;;;;;4.60;1.38;;;22.00;59.60;;;;;;4970058;28;20099;-58
2022/08/20 07:17:35;;;;;;;3.22;1.30;;;22.10;59.70;;;;;;4969662;28;20043;-59
2022/08/20 07:20:10;;;;;;;4.60;1.30;;;22.10;59.60;;;;;;4972526;28;20061;-59
2022/08/20 07:22:36;;;;;;;18.67;2.65;;;22.10;59.80;;;;;;4974902;28;20035;-59
2022/08/20 07:25:06;;;;;;;16.23;3.00;;;22.10;59.90;;;;;;4974203;28;20053;-59
2022/08/20 07:27:32;;;;;;;17.58;2.80;;;22.00;59.40;;;;;;4973157;28;20030;-59
2022/08/20 07:32:56;;;;;;;19.67;3.50;;;21.90;59.30;;;;;;4973370;28;20037;-59
2022/08/20 07:35:21;;;;;;;15.05;3.05;;;21.90;59.40;;;;;;4959310;28;20026;-59
2022/08/20 07:37:48;;;;;;;17.65;3.20;;;21.90;59.60;;;;;;4978629;28;20497;-59
2022/08/20 07:40:16;;;;;;;15.27;2.97;;;21.90;59.90;;;;;;4976788;28;20041;-59
2022/08/20 07:42:42;;;;;;;23.42;3.45;;;21.80;60.00;;;;;;4980660;28;20166;-59
2022/08/20 07:45:12;;;;;;;15.45;3.10;;;21.90;60.10;;;;;;4975928;28;20110;-59
2022/08/20 07:47:40;;;;;;;18.00;3.10;;;21.80;60.00;;;;;;4976753;28;20030;-59
2022/08/20 07:50:07;;;;;;;16.15;3.38;;;21.80;59.90;;;;;;4976979;28;20594;-59
2022/08/20 07:52:34;;;;;;;16.10;2.80;;;21.80;59.90;;;;;;4975860;28;20593;-59
2022/08/20 07:55:04;;;;;;;16.42;2.90;;;21.80;61.10;;;;;;4976719;28;20157;-59
2022/08/20 07:57:30;;;;;;;14.00;2.65;;;21.80;59.80;;;;;;4979286;28;20108;-59
2022/08/20 07:59:57;;;;;;;20.30;2.83;;;21.80;59.90;;;;;;4977257;28;20109;-59
2022/08/20 08:02:24;;;;;;;17.33;2.90;;;21.80;59.80;;;;;;4967226;28;20796;-57
2022/08/20 08:04:50;;;;;;;18.98;3.22;;;21.80;59.60;;;;;;4978895;28;20569;-57
2022/08/20 08:07:15;;;;;;;17.60;3.55;;;21.80;59.70;;;;;;4978616;28;20026;-59
2022/08/20 08:09:43;;;;;;;15.45;3.22;;;21.80;59.80;;;;;;4974062;28;20403;-61
2022/08/20 08:12:10;;;;;;;19.33;3.22;;;21.70;59.70;;;;;;4955468;28;20045;-57
2022/08/20 08:14:36;;;;;;;19.65;3.30;;;21.70;59.70;;;;;;4969215;28;20038;-57
2022/08/20 08:17:03;;;;;;;15.32;2.90;;;21.70;59.70;;;;;;4968666;28;20034;-59
2022/08/20 08:19:35;;;;;;;20.33;2.97;;;21.70;59.70;;;;;;4975260;28;20042;-59
2022/08/20 08:22:00;;;;;;;18.55;3.17;;;21.70;59.80;;;;;;4973185;28;20027;-59
2022/08/20 08:24:26;;;;;;;18.35;2.85;;;21.70;59.80;;;;;;4970638;28;20058;-58
2022/08/20 08:26:52;;;;;;;18.73;3.10;;;21.70;60.00;;;;;;4976502;28;20132;-59
2022/08/20 08:29:17;;;;;;;15.95;3.17;;;21.70;59.90;;;;;;4970362;28;20034;-59
2022/08/20 08:31:43;;;;;;;19.10;3.50;;;21.70;60.00;;;;;;4977414;28;20483;-58
2022/08/20 08:34:09;;;;;;;21.60;2.97;;;21.70;61.00;;;;;;4973824;28;20407;-58
2022/08/20 08:36:34;;;;;;;20.13;3.65;;;21.70;60.00;;;;;;4977320;28;20431;-59
2022/08/20 08:39:00;;;;;;;18.33;2.70;;;21.70;60.00;;;;;;4973473;28;20046;-59
2022/08/20 08:41:30;;;;;;;18.95;3.22;;;21.70;60.00;;;;;;4977835;28;20019;-59
2022/08/20 08:44:06;;;;;;;17.17;3.53;;;21.70;60.10;;;;;;4974170;28;20034;-59
2022/08/20 08:46:35;;;;;;;16.80;2.92;;;21.70;60.00;;;;;;4971348;28;20039;-58
2022/08/20 08:49:01;;;;;;;16.23;3.10;;;21.70;60.00;;;;;;4973159;28;20027;-59
2022/08/20 08:51:34;;;;;;;18.00;3.03;;;21.70;60.00;;;;;;4975100;28;20447;-58
2022/08/20 08:54:00;;;;;;;17.92;2.95;;;21.70;59.90;;;;;;4955552;28;20038;-59
2022/08/20 08:56:27;;;;;;;17.98;2.90;;;21.70;59.40;;;;;;4953381;28;20033;-59
2022/08/20 08:58:54;;;;;;;17.30;3.30;;;21.70;59.60;;;;;;4971063;28;20518;-59
2022/08/20 09:01:21;;;;;;;16.38;2.92;;;21.70;59.50;;;;;;4972401;28;20506;-59
2022/08/20 09:03:49;;;;;;;15.55;2.90;;;21.70;59.20;;;;;;4977058;28;20030;-58
2022/08/20 09:06:19;;;;;;;17.40;3.30;;;21.60;59.10;;;;;;4968014;28;20399;-59
2022/08/20 09:08:48;;;;;;;17.33;3.05;;;21.70;58.90;;;;;;4973333;28;20100;-58
2022/08/20 09:11:14;;;;;;;15.95;2.88;;;21.70;58.60;;;;;;4976162;28;20031;-59
2022/08/20 09:13:42;;;;;;;15.13;3.10;;;21.70;58.40;;;;;;4971981;28;20415;-59
2022/08/20 09:16:08;;;;;;;16.10;3.38;;;21.70;59.20;;;;;;4964704;28;20047;-59
2022/08/20 09:18:33;;;;;;;12.55;2.70;;;21.80;59.60;;;;;;4979009;28;20499;-59
2022/08/20 09:20:59;;;;;;;13.95;2.65;;;21.80;59.50;;;;;;4979321;28;20038;-59
2022/08/20 09:23:25;;;;;;;13.45;2.97;;;21.90;59.30;;;;;;4974206;28;20050;-59
2022/08/20 09:25:50;;;;;;;14.88;3.42;;;21.90;59.30;;;;;;4976234;28;20026;-59
2022/08/20 09:28:16;;;;;;;14.55;2.90;;;21.90;59.30;;;;;;4978075;28;20022;-58
2022/08/20 09:30:42;;;;;;;15.27;2.75;;;22.00;59.40;;;;;;4977543;28;20100;-58
2022/08/20 09:33:07;;;;;;;14.30;2.65;;;22.00;59.40;;;;;;4975656;28;20495;-57
2022/08/20 09:35:33;;;;;;;16.33;2.88;;;22.00;59.40;;;;;;4975842;28;20023;-58
2022/08/20 09:37:59;;;;;;;15.88;3.10;;;22.00;59.40;;;;;;4980605;28;20403;-57
2022/08/20 09:40:25;;;;;;;14.45;2.75;;;22.00;59.40;;;;;;4980497;28;20027;-57
2022/08/20 09:42:51;;;;;;;15.27;3.38;;;22.00;59.40;;;;;;4976715;28;20027;-57
2022/08/20 09:45:17;;;;;;;13.50;2.55;;;22.10;59.40;;;;;;4978834;28;20089;-57
2022/08/20 09:47:43;;;;;;;12.93;2.25;;;22.00;59.30;;;;;;4973497;28;20023;-58
2022/08/20 09:50:08;;;;;;;11.70;2.63;;;22.10;59.40;;;;;;4979977;28;20089;-59
2022/08/20 09:52:38;;;;;;;13.23;2.70;;;22.10;59.30;;;;;;4973705;28;20026;-58
2022/08/20 09:55:13;;;;;;;10.70;2.40;;;22.10;59.20;;;;;;4978148;28;20033;-58
2022/08/20 09:57:39;;;;;;;13.35;2.88;;;22.20;59.20;;;;;;4971674;28;20056;-59
2022/08/20 10:00:12;;;;;;;10.27;2.47;;;22.20;59.10;;;;;;4976247;28;20030;-58
2022/08/20 10:02:38;;;;;;;12.45;2.90;;;22.30;59.10;;;;;;4975797;28;20534;-59
2022/08/20 10:05:05;;;;;;;14.90;2.95;;;22.30;60.20;;;;;;4974334;28;20030;-59
2022/08/20 10:07:30;;;;;;;12.18;2.72;;;22.30;59.20;;;;;;4973679;28;20034;-58
2022/08/20 10:09:56;;;;;;;14.65;2.83;;;22.30;59.20;;;;;;4975991;28;20726;-58
2022/08/20 10:12:22;;;;;;;12.02;2.65;;;22.30;59.30;;;;;;4973157;28;20038;-58
2022/08/20 10:14:47;;;;;;;11.63;2.55;;;22.30;59.30;;;;;;4976724;28;20411;-59
2022/08/20 10:17:13;;;;;;;9.30;2.28;;;22.30;59.20;;;;;;4969330;28;20517;-59
2022/08/20 10:19:39;;;;;;;11.48;2.50;;;22.30;59.20;;;;;;4972405;28;20453;-58
2022/08/20 10:22:04;;;;;;;12.35;2.45;;;22.30;59.20;;;;;;4975209;28;20035;-59
2022/08/20 10:24:30;;;;;;;13.43;2.50;;;22.30;59.30;;;;;;4974789;28;20039;-58
2022/08/20 10:26:57;;;;;;;10.90;2.30;;;22.40;59.20;;;;;;4972945;28;20031;-58
2022/08/20 10:29:24;;;;;;;14.95;2.92;;;22.40;60.20;;;;;;4974217;28;20030;-59
2022/08/20 10:31:49;;;;;;;13.23;2.97;;;22.40;62.20;;;;;;4974782;28;20054;-58
2022/08/20 10:34:15;;;;;;;13.52;2.80;;;22.40;61.60;;;;;;4967461;28;20062;-58
2022/08/20 10:36:41;;;;;;;12.02;2.30;;;22.40;61.40;;;;;;4975791;28;20014;-59
2022/08/20 10:39:07;;;;;;;12.57;2.33;;;22.50;62.60;;;;;;4973514;28;20034;-59
2022/08/20 10:41:33;;;;;;;13.38;2.30;;;22.40;60.80;;;;;;4971482;28;20030;-59
2022/08/20 10:43:58;;;;;;;11.75;2.53;;;22.50;60.80;;;;;;4974877;28;20607;-59
2022/08/20 10:46:24;;;;;;;12.32;2.65;;;22.40;60.80;;;;;;4973618;28;20031;-58
2022/08/20 10:48:50;;;;;;;11.40;2.55;;;22.50;60.70;;;;;;4974530;28;20030;-59
2022/08/20 10:51:15;;;;;;;12.48;2.67;;;22.40;60.60;;;;;;4970799;28;20027;-59
2022/08/20 10:53:41;;;;;;;12.38;2.90;;;22.40;60.70;;;;;;4979610;28;20038;-59
2022/08/20 10:56:07;;;;;;;10.85;2.13;;;22.40;60.60;;;;;;4974181;28;20503;-57
2022/08/20 10:58:32;;;;;;;9.95;2.28;;;22.50;60.60;;;;;;4978255;28;20514;-59
2022/08/20 11:00:59;;;;;;;14.48;2.40;;;22.40;60.40;;;;;;4979134;28;20476;-59
2022/08/20 11:03:24;;;;;;;14.90;2.60;;;22.40;60.50;;;;;;4976446;28;20109;-59
2022/08/20 11:05:50;;;;;;;14.40;3.13;;;22.50;60.10;;;;;;4976583;28;20459;-59
2022/08/20 11:08:16;;;;;;;12.55;2.83;;;22.40;59.30;;;;;;4974092;28;20495;-59
2022/08/20 11:10:42;;;;;;;10.98;2.58;;;22.40;58.70;;;;;;4978634;28;20019;-59
2022/08/20 11:13:08;;;;;;;12.90;3.05;;;22.40;59.20;;;;;;4976077;28;20411;-58
2022/08/20 11:15:35;;;;;;;13.75;2.63;;;22.50;59.30;;;;;;4980357;28;20027;-58
2022/08/20 11:18:01;;;;;;;12.95;2.70;;;22.50;59.00;;;;;;4976051;28;20085;-59
2022/08/20 11:20:27;;;;;;;9.60;2.17;;;22.60;58.80;;;;;;4982722;28;20471;-59
2022/08/20 11:22:53;;;;;;;12.50;2.72;;;22.60;58.60;;;;;;4975238;28;20077;-59
2022/08/20 11:25:19;;;;;;;10.02;2.55;;;22.60;58.40;;;;;;4981336;28;20517;-59
2022/08/20 11:27:46;;;;;;;14.75;2.83;;;22.70;58.40;;;;;;4975228;28;20026;-59
2022/08/20 11:30:29;;;;;;;9.60;2.35;;;22.70;58.30;;;;;;4977143;28;20136;-58
2022/08/20 11:32:56;;;;;;;12.40;2.42;;;22.70;58.20;;;;;;4973738;28;20039;-58
2022/08/20 11:35:22;;;;;;;10.50;2.30;;;22.70;58.10;;;;;;4980058;28;20030;-58
2022/08/20 11:37:49;;;;;;;16.10;2.72;;;22.70;56.90;;;;;;4977585;28;20117;-58
2022/08/20 11:40:15;;;;;;;14.40;2.85;;;22.70;56.30;;;;;;4975326;28;20486;-59
2022/08/20 11:42:41;;;;;;;12.80;2.97;;;22.70;56.20;;;;;;4969969;28;20081;-59
2022/08/20 11:45:07;;;;;;;14.43;2.50;;;22.70;56.00;;;;;;4975961;28;20126;-59
2022/08/20 11:47:34;;;;;;;16.73;2.80;;;22.70;55.90;;;;;;4973290;28;20110;-59
2022/08/20 11:50:05;;;;;;;17.00;2.55;;;22.60;55.30;;;;;;4977320;28;20084;-59
2022/08/20 11:52:31;;;;;;;14.77;2.65;;;22.60;54.80;;;;;;4976731;28;20054;-59
2022/08/20 11:54:57;;;;;;;13.95;2.70;;;22.70;55.80;;;;;;4977202;28;20054;-59
2022/08/20 11:57:24;;;;;;;14.15;2.88;;;22.70;55.90;;;;;;4974488;28;20030;-59
2022/08/20 11:59:50;;;;;;;13.40;2.45;;;22.70;55.80;;;;;;4972242;28;20126;-59
2022/08/20 12:02:16;;;;;;;16.27;3.10;;;22.70;55.80;;;;;;4971239;28;20061;-58
2022/08/20 12:04:42;;;;;;;17.38;3.20;;;22.70;55.10;;;;;;4977305;28;20054;-59
2022/08/20 12:07:11;;;;;;;13.98;2.85;;;22.70;55.10;;;;;;4975863;28;20038;-58
2022/08/20 12:09:37;;;;;;;16.77;3.53;;;22.80;55.40;;;;;;4970704;28;20565;-59
2022/08/20 12:12:03;;;;;;;12.60;3.05;;;22.80;55.20;;;;;;4974440;28;20068;-58
2022/08/20 12:14:29;;;;;;;13.35;2.40;;;22.80;55.20;;;;;;4974576;28;20022;-59
2022/08/20 12:16:54;;;;;;;15.88;2.95;;;22.70;54.80;;;;;;4977439;28;20042;-59
2022/08/20 12:19:20;;;;;;;14.90;2.58;;;22.70;54.80;;;;;;4974364;28;20041;-59
2022/08/20 12:21:45;;;;;;;16.60;2.85;;;22.70;55.10;;;;;;4975803;28;20022;-59
2022/08/20 12:24:11;;;;;;;13.95;2.72;;;22.70;54.50;;;;;;4972848;28;20050;-59
2022/08/20 12:26:37;;;;;;;13.23;2.55;;;22.80;54.90;;;;;;4978776;28;20023;-59
2022/08/20 12:29:02;;;;;;;13.52;2.70;;;22.80;54.70;;;;;;4974849;28;20056;-59
2022/08/20 12:31:28;;;;;;;11.73;2.30;;;22.70;54.40;;;;;;4974604;28;20026;-58
2022/08/20 12:33:54;;;;;;;16.50;3.13;;;22.80;54.50;;;;;;4973733;28;20101;-59
2022/08/20 12:36:19;;;;;;;11.88;2.50;;;22.80;54.70;;;;;;4974246;28;20153;-59
2022/08/20 12:38:45;;;;;;;16.38;2.83;;;22.90;55.00;;;;;;4971638;28;20142;-58
2022/08/20 12:41:11;;;;;;;14.40;2.50;;;22.90;54.80;;;;;;4971985;28;20057;-58
2022/08/20 12:43:36;;;;;;;14.40;2.70;;;22.90;54.60;;;;;;4976465;28;20479;-58
2022/08/20 12:46:02;;;;;;;13.63;2.75;;;22.80;54.20;;;;;;4972845;28;20499;-58